createdAt,value
2018-11-25T00:04:50.895Z,80.18
2018-11-25T00:09:53.076Z,82.35
2018-11-25T00:14:55.212Z,81.44
2018-11-25T00:19:57.394Z,80.90
2018-11-25T00:24:59.607Z,81.04
2018-11-25T00:30:01.812Z,81.07
2018-11-25T00:35:03.967Z,81.04
2018-11-25T00:40:07.922Z,81.10
2018-11-25T00:45:12.497Z,80.66
2018-11-25T00:50:14.732Z,80.58
2018-11-25T00:55:17.202Z,80.36
2018-11-25T01:00:19.538Z,80.27
2018-11-25T01:05:21.729Z,80.36
2018-11-25T01:10:23.890Z,80.73
2018-11-25T01:15:26.063Z,80.88
2018-11-25T01:20:28.205Z,80.81
2018-11-25T01:25:30.356Z,80.50
2018-11-25T01:30:32.523Z,80.75
2018-11-25T01:35:34.668Z,81.51
2018-11-25T01:40:36.782Z,81.55
2018-11-25T01:45:38.950Z,81.15
2018-11-25T01:50:41.099Z,83.17
2018-11-25T01:55:43.270Z,81.68
2018-11-25T02:00:45.421Z,83.02
2018-11-25T02:05:47.577Z,82.55
2018-11-25T02:10:49.733Z,81.68
2018-11-25T02:15:51.833Z,81.66
2018-11-25T02:20:55.551Z,81.04
2018-11-25T02:25:57.694Z,80.97
2018-11-25T02:30:59.851Z,81.17
2018-11-25T02:36:01.976Z,80.83
2018-11-25T02:41:04.177Z,80.89
2018-11-25T02:46:06.361Z,81.14
2018-11-25T02:51:08.506Z,80.77
2018-11-25T02:56:10.634Z,80.89
2018-11-25T03:01:12.726Z,81.35
2018-11-25T03:06:14.872Z,81.59
2018-11-25T03:11:17.027Z,81.50
2018-11-25T03:16:19.199Z,81.89
2018-11-25T03:21:21.343Z,82.41
2018-11-25T03:26:23.484Z,82.63
2018-11-25T03:31:25.614Z,83.37
2018-11-25T03:36:27.732Z,83.21
2018-11-25T03:41:29.866Z,83.62
2018-11-25T03:46:32.052Z,83.66
2018-11-25T03:51:34.219Z,84.69
2018-11-25T03:56:36.346Z,84.53
2018-11-25T04:01:38.482Z,84.97
2018-11-25T04:06:40.600Z,85.13
2018-11-25T04:11:42.728Z,85.17
2018-11-25T04:16:44.869Z,85.05
2018-11-25T04:21:47.007Z,84.32
2018-11-25T04:26:49.143Z,84.53
2018-11-25T04:31:51.263Z,84.96
2018-11-25T04:36:53.382Z,84.87
2018-11-25T04:41:55.486Z,84.63
2018-11-25T04:46:57.620Z,84.87
2018-11-25T04:51:59.733Z,84.32
2018-11-25T04:57:01.867Z,84.40
2018-11-25T05:02:03.999Z,84.52
2018-11-25T05:07:06.265Z,84.40
2018-11-25T05:12:08.390Z,83.92
2018-11-25T05:17:10.535Z,83.85
2018-11-25T05:22:12.670Z,84.28
2018-11-25T05:27:14.816Z,84.22
2018-11-25T05:32:16.938Z,84.20
2018-11-25T05:37:19.068Z,84.79
2018-11-25T05:42:21.159Z,84.80
2018-11-25T05:47:23.285Z,84.65
2018-11-25T05:52:25.448Z,84.87
2018-11-25T05:57:27.548Z,84.92
2018-11-25T06:02:29.651Z,85.09
2018-11-25T06:07:31.755Z,86.21
2018-11-25T06:12:33.864Z,86.01
2018-11-25T06:17:35.975Z,85.49
2018-11-25T06:22:38.095Z,85.39
2018-11-25T06:27:40.299Z,86.04
2018-11-25T06:32:42.447Z,86.45
2018-11-25T06:37:44.644Z,86.67
2018-11-25T06:42:46.850Z,86.15
2018-11-25T06:47:49.036Z,86.56
2018-11-25T06:52:51.194Z,86.87
2018-11-25T06:57:53.290Z,86.29
2018-11-25T07:02:55.420Z,86.65
2018-11-25T07:07:57.556Z,86.92
2018-11-25T07:12:59.666Z,88.19
2018-11-25T07:18:01.788Z,88.47
2018-11-25T07:23:03.983Z,88.63
2018-11-25T07:28:18.044Z,88.83
2018-11-25T07:33:08.311Z,89.04
2018-11-25T07:38:10.443Z,88.74
2018-11-25T07:43:12.593Z,88.09
2018-11-25T07:48:14.807Z,88.05
2018-11-25T07:53:16.954Z,87.55
2018-11-25T07:58:19.088Z,88.01
2018-11-25T08:03:21.253Z,88.00
2018-11-25T08:08:23.351Z,88.24
2018-11-25T08:13:25.508Z,88.36
2018-11-25T08:18:27.658Z,87.79
2018-11-25T08:23:29.800Z,87.01
2018-11-25T08:28:31.944Z,86.56
2018-11-25T08:33:34.061Z,85.98
2018-11-25T08:38:36.208Z,85.47
2018-11-25T08:43:38.349Z,86.90
2018-11-25T08:48:40.546Z,87.90
2018-11-25T08:53:42.692Z,88.50
2018-11-25T08:58:44.820Z,88.80
2018-11-25T09:03:46.956Z,89.55
2018-11-25T09:08:49.122Z,89.69
2018-11-25T09:13:51.241Z,90.85
2018-11-25T09:18:53.399Z,90.22
2018-11-25T09:23:55.588Z,91.01
2018-11-25T09:28:57.785Z,91.41
2018-11-25T09:33:59.933Z,92.25
2018-11-25T09:39:02.147Z,92.68
2018-11-25T09:44:04.611Z,92.81
2018-11-25T09:49:06.861Z,92.38
2018-11-25T09:54:09.014Z,92.46
2018-11-25T09:59:11.978Z,92.57
2018-11-25T10:04:14.191Z,92.75
2018-11-25T10:09:16.378Z,92.95
2018-11-25T10:14:18.512Z,92.96
2018-11-25T10:19:20.696Z,93.68
2018-11-25T10:24:22.841Z,93.82
2018-11-25T10:29:24.983Z,93.71
2018-11-25T10:34:27.189Z,93.81
2018-11-25T10:39:29.345Z,93.05
2018-11-25T10:44:31.540Z,93.09
2018-11-25T10:49:33.730Z,92.37
2018-11-25T10:54:35.893Z,92.70
2018-11-25T10:59:38.055Z,92.54
2018-11-25T11:05:45.207Z,92.72
2018-11-25T11:10:47.343Z,92.06
2018-11-25T11:15:49.516Z,91.57
2018-11-25T11:20:51.654Z,91.12
2018-11-25T11:25:53.800Z,89.79
2018-11-25T11:30:55.997Z,88.89
2018-11-25T11:35:58.181Z,89.59
2018-11-25T11:41:00.362Z,88.67
2018-11-25T11:46:02.524Z,89.35
2018-11-25T11:51:04.888Z,89.22
2018-11-25T11:56:07.046Z,89.26
2018-11-25T12:01:09.219Z,89.75
2018-11-25T12:06:11.404Z,89.76
2018-11-25T12:11:13.585Z,89.89
2018-11-25T12:16:15.765Z,90.32
2018-11-25T12:21:17.922Z,89.74
2018-11-25T12:26:20.116Z,89.25
2018-11-25T12:31:22.278Z,88.32
2018-11-25T12:36:25.134Z,89.88
2018-11-25T12:41:27.277Z,86.89
2018-11-25T12:46:29.597Z,86.11
2018-11-25T12:51:31.789Z,86.18
2018-11-25T12:56:33.947Z,85.14
2018-11-25T13:01:36.116Z,84.82
2018-11-25T13:06:38.253Z,84.14
2018-11-25T13:11:40.406Z,83.78
2018-11-25T13:16:42.839Z,82.35
2018-11-25T13:21:46.543Z,82.25
2018-11-25T13:26:48.901Z,80.92
2018-11-25T13:31:51.225Z,81.14
2018-11-25T13:36:53.424Z,81.07
2018-11-25T13:41:55.845Z,81.43
2018-11-25T13:46:58.008Z,81.67
2018-11-25T13:52:00.329Z,81.81
2018-11-25T13:57:03.316Z,82.19
2018-11-25T14:02:05.735Z,81.79
2018-11-25T14:07:07.921Z,81.66
2018-11-25T14:12:10.088Z,82.35
2018-11-25T14:17:12.317Z,82.19
2018-11-25T14:22:14.541Z,81.72
2018-11-25T14:27:16.787Z,81.89
2018-11-25T14:32:19.015Z,80.70
2018-11-25T14:37:21.186Z,80.70
2018-11-25T14:42:23.383Z,80.46
2018-11-25T14:47:25.570Z,80.43
2018-11-25T14:52:27.767Z,81.34
2018-11-25T14:57:29.939Z,81.29
2018-11-25T15:02:32.171Z,81.71
2018-11-25T15:07:34.389Z,81.92
2018-11-25T15:12:36.615Z,82.01
2018-11-25T15:17:39.104Z,82.06
2018-11-25T15:22:44.008Z,82.48
2018-11-25T15:27:46.285Z,82.85
2018-11-25T15:32:48.497Z,82.50
2018-11-25T15:37:51.565Z,82.79
2018-11-25T15:42:53.736Z,84.03
2018-11-25T15:47:58.459Z,83.04
2018-11-25T15:53:00.752Z,83.02
2018-11-25T15:58:02.991Z,82.98
2018-11-25T16:03:07.184Z,86.50
2018-11-25T16:08:09.415Z,82.81
2018-11-25T16:13:11.630Z,83.10
2018-11-25T16:18:13.919Z,82.84
2018-11-25T16:23:16.088Z,82.55
2018-11-25T16:28:22.725Z,82.31
2018-11-25T16:33:24.921Z,82.43
2018-11-25T16:38:27.160Z,82.55
2018-11-25T16:43:29.360Z,82.60
2018-11-25T16:48:31.548Z,82.88
2018-11-25T16:53:33.802Z,82.58
2018-11-25T16:58:35.961Z,82.74
2018-11-25T17:03:38.120Z,82.96
2018-11-25T17:08:41.642Z,82.22
2018-11-25T17:13:43.845Z,82.62
2018-11-25T17:18:46.072Z,82.95
2018-11-25T17:23:48.220Z,83.37
2018-11-25T17:28:50.409Z,83.48
2018-11-25T17:33:52.640Z,84.11
2018-11-25T17:38:54.847Z,84.23
2018-11-25T17:43:57.070Z,84.88
2018-11-25T17:48:59.293Z,85.04
2018-11-25T17:54:01.575Z,86.16
2018-11-25T17:59:03.862Z,88.16
2018-11-25T18:04:06.247Z,88.51
2018-11-25T18:09:09.894Z,88.69
2018-11-25T18:14:12.181Z,89.39
2018-11-25T18:19:21.212Z,89.25
2018-11-25T18:24:24.971Z,89.43
2018-11-25T18:29:30.161Z,89.59
2018-11-25T18:34:33.508Z,89.32
2018-11-25T18:39:36.434Z,89.71
2018-11-25T18:44:39.440Z,89.60
2018-11-25T18:49:41.912Z,90.11
2018-11-25T18:54:45.122Z,90.17
2018-11-25T18:59:48.112Z,89.30
2018-11-25T19:04:51.236Z,89.48
2018-11-25T19:09:54.015Z,90.25
2018-11-25T19:14:56.353Z,90.38
2018-11-25T19:20:01.939Z,90.86
2018-11-25T19:25:09.497Z,91.48
2018-11-25T19:30:16.292Z,91.41
2018-11-25T19:35:22.981Z,91.70
2018-11-25T19:40:29.603Z,90.88
2018-11-25T19:45:34.386Z,90.89
2018-11-25T19:50:40.366Z,90.00
2018-11-25T19:55:47.062Z,90.83
2018-11-25T20:00:53.926Z,90.78
2018-11-25T20:06:00.026Z,91.01
2018-11-25T20:11:06.123Z,90.72
2018-11-25T20:16:18.512Z,91.55
2018-11-25T20:21:29.522Z,90.71
2018-11-25T20:26:35.717Z,90.48
2018-11-25T20:31:41.601Z,91.22
2018-11-25T20:36:47.753Z,91.08
2018-11-25T20:41:54.479Z,90.50
2018-11-25T20:47:07.388Z,90.22
2018-11-25T20:52:18.185Z,90.03
2018-11-25T20:57:23.671Z,89.34
2018-11-25T21:02:29.322Z,89.08
2018-11-25T21:07:33.178Z,88.38
2018-11-25T21:12:36.664Z,89.02
2018-11-25T21:17:39.914Z,88.71
2018-11-25T21:22:42.188Z,89.39
2018-11-25T21:27:44.548Z,89.39
2018-11-25T21:32:47.833Z,90.53
2018-11-25T21:37:50.894Z,89.85
2018-11-25T21:42:53.079Z,89.89
2018-11-25T21:47:55.330Z,89.95
2018-11-25T21:52:57.480Z,89.75
2018-11-25T21:57:59.661Z,90.02
2018-11-25T22:03:01.821Z,90.28
2018-11-25T22:08:04.356Z,90.26
2018-11-25T22:13:06.501Z,90.61
2018-11-25T22:18:08.642Z,90.18
2018-11-25T22:23:10.806Z,90.18
2018-11-25T22:28:12.952Z,90.05
2018-11-25T22:33:15.051Z,89.56
2018-11-25T22:38:17.221Z,89.99
2018-11-25T22:43:19.397Z,90.27
2018-11-25T22:48:21.536Z,90.80
2018-11-25T22:53:24.401Z,90.36
2018-11-25T22:58:27.340Z,90.41
2018-11-25T23:03:29.498Z,90.21
2018-11-25T23:08:31.652Z,90.24
2018-11-25T23:13:33.997Z,90.57
2018-11-25T23:18:36.197Z,90.20
2018-11-25T23:23:38.316Z,91.03
2018-11-25T23:28:40.505Z,90.99
2018-11-25T23:33:42.811Z,91.16
2018-11-25T23:38:44.922Z,90.67
2018-11-25T23:43:47.138Z,90.28
2018-11-25T23:48:49.522Z,89.87
2018-11-25T23:53:51.623Z,90.48
2018-11-25T23:58:53.782Z,89.86
